Stockport, United Kingdom
Current Conditions -  °F | °C
As of 1:20 AM on Saturday 20 Dec 2014 (Local Time) from EGCC Reporting Station
Broken Clouds Broken Clouds  
Wind Chill: 35°   Ceiling: 4400
Heat Index: 43°   Visibility: 6mi
Dew Point: 37°   Wind: 17mph
Humidity: 81%   Direction: 240°WSW
Pressure: 30.09"   Gusts: NA
Location:  53.41°N, 2.15°W
Report Text: EGCC 200120Z AUTO 24015KT 9999 FEW025 SCT036 BKN044 06/03 Q1019
Loading
Personal Weather Stations






























Interactive Weather Map New forecast layout! Learn more

10-Day Weather Forecast

Advertisements
Track Severe Weather on mobile